createdAt,value
2023-04-15T00:02:24.506Z,5.38
2023-04-15T00:04:51.456Z,7.53
2023-04-15T00:07:18.199Z,2.88
2023-04-15T00:09:44.991Z,8.57
2023-04-15T00:12:12.480Z,7.70
2023-04-15T00:14:40.705Z,5.53
2023-04-15T00:17:07.398Z,6.20
2023-04-15T00:19:34.160Z,5.72
2023-04-15T00:22:01.536Z,4.93
2023-04-15T00:24:28.272Z,3.88
2023-04-15T00:26:54.954Z,4.53
2023-04-15T00:29:21.662Z,5.85
2023-04-15T00:31:50.218Z,5.13
2023-04-15T00:34:16.938Z,5.38
2023-04-15T00:36:43.950Z,6.60
2023-04-15T00:39:10.949Z,3.38
2023-04-15T00:41:39.717Z,3.55
2023-04-15T00:44:06.707Z,4.63
2023-04-15T00:46:36.014Z,4.10
2023-04-15T00:49:05.643Z,4.53
2023-04-15T00:51:33.697Z,4.88
2023-04-15T00:54:00.748Z,4.38
2023-04-15T00:56:29.665Z,4.75
2023-04-15T00:58:57.135Z,4.00
2023-04-15T01:01:25.541Z,5.40
2023-04-15T01:03:52.376Z,4.13
2023-04-15T01:06:21.427Z,3.47
2023-04-15T01:08:48.257Z,4.55
2023-04-15T01:11:15.844Z,5.97
2023-04-15T01:13:42.542Z,2.78
2023-04-15T01:16:09.659Z,6.03
2023-04-15T01:18:37.752Z,1.88
2023-04-15T01:21:07.212Z,4.55
2023-04-15T01:23:39.404Z,3.20
2023-04-15T01:26:11.364Z,4.70
2023-04-15T01:28:38.967Z,1.85
2023-04-15T01:31:07.510Z,3.00
2023-04-15T01:33:37.269Z,4.30
2023-04-15T01:36:05.066Z,6.07
2023-04-15T01:38:33.112Z,6.47
2023-04-15T01:40:59.874Z,4.15
2023-04-15T01:43:28.357Z,3.50
2023-04-15T01:45:55.898Z,4.68
2023-04-15T01:48:23.033Z,5.38
2023-04-15T01:50:49.975Z,5.18
2023-04-15T01:53:16.904Z,4.68
2023-04-15T01:55:44.070Z,4.20
2023-04-15T01:58:10.735Z,5.78
2023-04-15T02:00:38.897Z,3.08
2023-04-15T02:03:06.632Z,6.18
2023-04-15T02:05:33.793Z,4.55
2023-04-15T02:08:00.626Z,3.83
2023-04-15T02:10:27.520Z,5.88
2023-04-15T02:12:54.393Z,3.70
2023-04-15T02:15:21.847Z,3.65
2023-04-15T02:17:52.680Z,5.30
2023-04-15T02:20:21.403Z,4.45
2023-04-15T02:22:48.572Z,3.03
2023-04-15T02:25:17.034Z,6.35
2023-04-15T02:27:46.850Z,4.13
2023-04-15T02:30:13.634Z,5.20
2023-04-15T02:32:41.310Z,6.47
2023-04-15T02:35:09.904Z,3.08
2023-04-15T02:37:41.571Z,6.30
2023-04-15T02:40:12.118Z,2.70
2023-04-15T02:42:39.350Z,7.88
2023-04-15T02:45:08.693Z,3.85
2023-04-15T02:47:36.341Z,3.60
2023-04-15T02:50:05.564Z,3.95
2023-04-15T02:52:33.879Z,10.75
2023-04-15T02:55:02.523Z,4.38
2023-04-15T02:57:29.868Z,4.82
2023-04-15T02:59:59.539Z,5.28
2023-04-15T03:02:26.639Z,4.72
2023-04-15T03:04:54.859Z,4.55
2023-04-15T03:07:22.056Z,5.38
2023-04-15T03:09:50.665Z,9.45
2023-04-15T03:12:17.291Z,6.35
2023-04-15T03:14:44.897Z,7.45
2023-04-15T03:17:11.528Z,6.40
2023-04-15T03:19:38.977Z,4.93
2023-04-15T03:22:05.818Z,4.70
2023-04-15T03:24:32.473Z,4.63
2023-04-15T03:27:02.030Z,5.63
2023-04-15T03:29:29.338Z,8.38
2023-04-15T03:31:56.241Z,3.80
2023-04-15T03:34:23.210Z,4.28
2023-04-15T03:36:50.139Z,4.18
2023-04-15T03:39:17.173Z,7.22
2023-04-15T03:41:43.991Z,5.30
2023-04-15T03:44:12.111Z,5.68
2023-04-15T03:46:38.877Z,5.25
2023-04-15T03:49:07.148Z,3.08
2023-04-15T03:51:33.904Z,3.88
2023-04-15T03:54:00.542Z,3.95
2023-04-15T03:56:27.183Z,6.40
2023-04-15T03:58:53.830Z,3.65
2023-04-15T04:01:23.049Z,5.32
2023-04-15T04:03:49.867Z,6.43
2023-04-15T04:06:16.984Z,4.60
2023-04-15T04:08:43.919Z,4.32
2023-04-15T04:11:10.681Z,5.03
2023-04-15T04:13:37.357Z,4.15
2023-04-15T04:16:05.093Z,3.95
2023-04-15T04:18:33.579Z,6.75
2023-04-15T04:21:00.619Z,5.32
2023-04-15T04:23:27.407Z,4.95
2023-04-15T04:25:54.045Z,4.55
2023-04-15T04:28:20.904Z,6.95
2023-04-15T04:30:47.650Z,4.72
2023-04-15T04:33:14.451Z,3.17
2023-04-15T04:35:42.621Z,2.85
2023-04-15T04:38:09.373Z,5.50
2023-04-15T04:40:36.489Z,6.05
2023-04-15T04:43:03.332Z,3.92
2023-04-15T04:45:30.008Z,7.47
2023-04-15T04:47:56.699Z,5.50
2023-04-15T04:50:23.373Z,8.85
2023-04-15T04:52:51.801Z,5.15
2023-04-15T04:55:18.652Z,5.47
2023-04-15T04:57:45.825Z,3.75
2023-04-15T05:00:14.037Z,5.53
2023-04-15T05:02:42.412Z,7.88
2023-04-15T05:05:09.823Z,7.68
2023-04-15T05:07:37.100Z,6.97
2023-04-15T05:10:06.626Z,5.10
2023-04-15T05:12:33.266Z,4.80
2023-04-15T05:15:00.089Z,5.10
2023-04-15T05:17:27.303Z,5.38
2023-04-15T05:19:54.062Z,5.65
2023-04-15T05:22:20.773Z,6.38
2023-04-15T05:24:47.621Z,6.82
2023-04-15T05:27:15.857Z,4.40
2023-04-15T05:29:42.802Z,6.00
2023-04-15T05:32:09.517Z,6.13
2023-04-15T05:34:36.176Z,5.72
2023-04-15T05:37:03.056Z,9.52
2023-04-15T05:39:29.682Z,9.05
2023-04-15T05:41:57.735Z,7.88
2023-04-15T05:44:25.905Z,9.18
2023-04-15T05:46:52.690Z,9.15
2023-04-15T05:49:19.326Z,11.80
2023-04-15T05:51:47.438Z,10.13
2023-04-15T05:54:14.221Z,9.82
2023-04-15T05:56:41.021Z,7.57
2023-04-15T05:59:28.395Z,11.52
2023-04-15T06:01:55.267Z,10.18
2023-04-15T06:04:22.855Z,13.48
2023-04-15T06:06:49.609Z,25.80
2023-04-15T06:09:16.993Z,15.18
2023-04-15T06:11:43.828Z,7.88
2023-04-15T06:14:10.558Z,11.82
2023-04-15T06:16:38.755Z,10.60
2023-04-15T06:19:05.532Z,9.75
2023-04-15T06:21:32.473Z,11.98
2023-04-15T06:24:01.429Z,13.15
2023-04-15T06:26:28.591Z,15.50
2023-04-15T06:28:55.675Z,13.00
2023-04-15T06:31:22.306Z,14.93
2023-04-15T06:33:50.969Z,11.98
2023-04-15T06:36:18.423Z,13.40
2023-04-15T06:38:45.462Z,13.63
2023-04-15T06:41:12.288Z,11.15
2023-04-15T06:43:40.425Z,9.98
2023-04-15T06:46:07.145Z,10.77
2023-04-15T06:48:33.849Z,7.68
2023-04-15T06:51:01.996Z,10.85
2023-04-15T06:53:29.082Z,9.38
2023-04-15T06:55:56.034Z,9.95
2023-04-15T06:58:22.865Z,11.52
2023-04-15T07:00:49.581Z,9.43
2023-04-15T07:03:16.351Z,6.95
2023-04-15T07:05:43.519Z,9.38
2023-04-15T07:08:11.563Z,5.88
2023-04-15T07:10:38.202Z,10.60
2023-04-15T07:13:05.735Z,4.10
2023-04-15T07:15:32.550Z,2.50
2023-04-15T07:17:59.207Z,2.72
2023-04-15T07:20:26.000Z,4.97
2023-04-15T07:22:53.098Z,3.75
2023-04-15T07:25:21.283Z,3.58
2023-04-15T07:27:48.127Z,4.65
2023-04-15T07:30:14.955Z,6.38
2023-04-15T07:32:42.619Z,7.22
2023-04-15T07:35:09.779Z,6.45
2023-04-15T07:37:36.583Z,2.90
2023-04-15T07:40:05.020Z,3.65
2023-04-15T07:42:33.634Z,5.13
2023-04-15T07:45:00.580Z,3.42
2023-04-15T07:47:27.505Z,4.15
2023-04-15T07:49:54.260Z,4.47
2023-04-15T07:52:20.982Z,9.60
2023-04-15T07:54:47.765Z,6.55
2023-04-15T07:57:14.480Z,7.57
2023-04-15T07:59:42.550Z,5.97
2023-04-15T08:02:09.915Z,5.40
2023-04-15T08:04:36.955Z,7.97
2023-04-15T08:07:04.832Z,3.30
2023-04-15T08:09:31.703Z,6.15
2023-04-15T08:11:58.339Z,7.57
2023-04-15T08:14:25.006Z,4.18
2023-04-15T08:16:53.412Z,4.35
2023-04-15T08:19:20.546Z,8.20
2023-04-15T08:21:47.598Z,5.05
2023-04-15T08:24:14.449Z,7.47
2023-04-15T08:26:41.948Z,7.25
2023-04-15T08:29:09.184Z,6.85
2023-04-15T08:31:35.979Z,4.65
2023-04-15T08:34:04.819Z,7.30
2023-04-15T08:36:32.469Z,3.70
2023-04-15T08:39:01.454Z,5.15
2023-04-15T08:41:32.432Z,6.05
2023-04-15T08:44:03.662Z,4.65
2023-04-15T08:46:31.586Z,4.90
2023-04-15T08:48:59.217Z,4.10
2023-04-15T08:51:27.677Z,5.80
2023-04-15T08:53:55.007Z,7.50
2023-04-15T08:56:25.247Z,5.40
2023-04-15T09:10:30.946Z,4.90
2023-04-15T09:12:57.824Z,4.80
2023-04-15T09:18:29.178Z,6.13
2023-04-15T09:20:56.526Z,5.03
2023-04-15T09:49:44.103Z,7.63
2023-04-15T09:52:14.370Z,6.45
2023-04-15T09:57:38.210Z,4.78
2023-04-15T10:00:07.634Z,8.15
2023-04-15T10:02:35.058Z,4.75
2023-04-15T10:05:02.478Z,5.60
2023-04-15T10:07:30.885Z,7.15
2023-04-15T10:10:00.867Z,4.68
2023-04-15T10:12:28.577Z,5.53
2023-04-15T10:14:59.363Z,6.65
2023-04-15T10:24:02.026Z,9.05
